createdAt,value
2019-04-21T00:00:26.002Z,11.87
2019-04-21T00:02:55.506Z,12.40
2019-04-21T00:05:43.157Z,12.27
2019-04-21T00:08:29.592Z,12.20
2019-04-21T00:10:48.205Z,13.03
2019-04-21T00:13:14.887Z,12.50
2019-04-21T00:15:38.439Z,13.63
2019-04-21T00:18:06.894Z,12.30
2019-04-21T00:20:41.272Z,14.10
2019-04-21T00:23:22.633Z,12.90
2019-04-21T00:25:49.886Z,13.47
2019-04-21T00:28:33.241Z,14.37
2019-04-21T00:31:00.674Z,13.77
2019-04-21T00:33:17.591Z,14.17
2019-04-21T00:35:51.101Z,14.23
2019-04-21T00:38:32.658Z,14.47
2019-04-21T00:41:05.499Z,14.77
2019-04-21T00:43:32.927Z,13.40
2019-04-21T00:45:57.576Z,14.10
2019-04-21T00:48:41.297Z,14.17
2019-04-21T00:51:29.085Z,13.63
2019-04-21T00:54:07.061Z,13.00
2019-04-21T00:56:34.039Z,11.43
2019-04-21T00:59:05.751Z,11.20
2019-04-21T01:01:34.237Z,12.70
2019-04-21T01:04:03.202Z,12.40
2019-04-21T01:06:35.314Z,12.20
2019-04-21T01:09:02.652Z,12.27
2019-04-21T01:11:42.194Z,13.60
2019-04-21T01:14:12.089Z,12.73
2019-04-21T01:16:46.136Z,11.50
2019-04-21T01:19:14.431Z,12.00
2019-04-21T01:21:21.274Z,12.20
2019-04-21T01:23:50.810Z,13.67
2019-04-21T01:26:34.022Z,13.13
2019-04-21T01:29:08.625Z,13.10
2019-04-21T01:31:37.587Z,12.70
2019-04-21T01:34:14.946Z,13.37
2019-04-21T01:36:44.583Z,12.80
2019-04-21T01:39:22.613Z,13.63
2019-04-21T01:41:55.431Z,13.73
2019-04-21T01:44:25.122Z,13.03
2019-04-21T01:46:45.815Z,12.70
2019-04-21T01:49:13.180Z,12.67
2019-04-21T01:52:02.819Z,12.87
2019-04-21T01:54:44.976Z,12.27
2019-04-21T01:57:15.700Z,13.20
2019-04-21T01:59:41.634Z,13.10
2019-04-21T02:02:18.824Z,12.67
2019-04-21T02:04:57.611Z,13.00
2019-04-21T02:07:20.675Z,12.30
2019-04-21T02:09:51.339Z,12.47
2019-04-21T02:12:25.499Z,12.20
2019-04-21T02:15:00.763Z,12.53
2019-04-21T02:17:25.114Z,13.30
2019-04-21T02:19:49.163Z,12.97
2019-04-21T02:22:35.350Z,13.17
2019-04-21T02:25:02.963Z,12.67
2019-04-21T02:27:31.078Z,13.87
2019-04-21T02:30:12.154Z,13.13
2019-04-21T02:32:43.432Z,13.03
2019-04-21T02:35:20.778Z,13.20
2019-04-21T02:38:03.914Z,14.03
2019-04-21T02:40:11.563Z,14.53
2019-04-21T02:45:17.153Z,13.57
2019-04-21T02:47:57.276Z,13.80
2019-04-21T02:50:28.232Z,13.67
2019-04-21T02:55:25.642Z,14.30
2019-04-21T02:57:59.507Z,14.77
2019-04-21T03:00:29.845Z,15.10
2019-04-21T03:03:09.345Z,14.03
2019-04-21T03:05:58.706Z,14.47
2019-04-21T03:13:40.998Z,14.93
2019-04-21T03:16:06.890Z,14.70
2019-04-21T03:18:45.994Z,14.93
2019-04-21T03:23:46.082Z,15.93
2019-04-21T03:26:21.987Z,15.27
2019-04-21T03:28:36.894Z,17.17
2019-04-21T03:34:22.502Z,17.07
2019-04-21T03:36:41.440Z,16.53
2019-04-21T03:41:26.489Z,15.33
2019-04-21T03:43:54.339Z,16.03
2019-04-21T03:46:16.417Z,17.07
2019-04-21T03:48:53.958Z,16.93
2019-04-21T03:51:23.443Z,16.83
2019-04-21T03:53:49.790Z,17.27
2019-04-21T03:56:27.525Z,16.33
2019-04-21T04:01:40.929Z,16.80
2019-04-21T04:04:27.909Z,16.77
2019-04-21T04:09:48.187Z,16.53
2019-04-21T04:12:11.331Z,16.30
2019-04-21T04:14:44.153Z,16.13
2019-04-21T04:19:44.598Z,16.83
2019-04-21T04:22:20.201Z,16.07
2019-04-21T04:25:05.196Z,15.93
2019-04-21T04:29:52.968Z,15.20
2019-04-21T04:32:25.270Z,16.10
2019-04-21T04:34:58.854Z,16.03
2019-04-21T04:42:45.738Z,16.10
2019-04-21T04:45:17.614Z,16.83
2019-04-21T04:49:59.461Z,15.73
2019-04-21T04:52:41.935Z,16.90
2019-04-21T04:55:08.136Z,15.73
2019-04-21T04:57:59.251Z,15.53
2019-04-21T05:00:19.664Z,15.53
2019-04-21T05:02:42.100Z,15.47
2019-04-21T05:05:23.714Z,15.87
2019-04-21T05:07:52.254Z,14.40
2019-04-21T05:10:22.307Z,15.00
2019-04-21T05:12:44.274Z,15.80
2019-04-21T05:17:55.392Z,14.83
2019-04-21T05:20:15.793Z,15.10
2019-04-21T05:22:50.049Z,15.33
2019-04-21T05:25:13.504Z,14.07
2019-04-21T05:27:43.819Z,14.73
2019-04-21T05:30:30.824Z,14.00
2019-04-21T05:33:00.078Z,15.47
2019-04-21T05:35:51.953Z,15.53
2019-04-21T05:38:24.070Z,15.07
2019-04-21T05:40:51.232Z,14.53
2019-04-21T05:43:28.433Z,15.83
2019-04-21T05:46:02.557Z,15.47
2019-04-21T05:48:37.842Z,16.13
2019-04-21T05:51:02.079Z,15.77
2019-04-21T05:53:35.685Z,17.97
2019-04-21T05:58:40.941Z,18.70
2019-04-21T06:01:24.089Z,16.80
2019-04-21T06:06:20.443Z,20.20
2019-04-21T06:08:42.374Z,19.57
2019-04-21T06:11:19.221Z,20.40
2019-04-21T06:13:55.039Z,21.57
2019-04-21T06:16:27.771Z,20.57
2019-04-21T06:18:53.133Z,19.97
2019-04-21T06:21:23.544Z,20.37
2019-04-21T06:23:50.194Z,20.57
2019-04-21T06:29:09.183Z,19.77
2019-04-21T06:31:50.224Z,19.60
2019-04-21T06:33:57.611Z,19.73
2019-04-21T06:36:45.184Z,17.00
2019-04-21T06:39:30.512Z,16.53
2019-04-21T06:41:38.033Z,17.33
2019-04-21T06:49:15.964Z,18.73
2019-04-21T06:51:48.198Z,17.93
2019-04-21T06:54:23.853Z,19.93
2019-04-21T06:57:18.116Z,19.27
2019-04-21T06:59:21.126Z,18.00
2019-04-21T07:01:59.814Z,19.43
2019-04-21T07:04:24.244Z,16.13
2019-04-21T07:06:59.500Z,15.37
2019-04-21T07:09:48.405Z,15.50
2019-04-21T07:11:59.719Z,13.10
2019-04-21T07:17:06.768Z,12.97
2019-04-21T07:19:46.266Z,13.10
2019-04-21T07:22:03.061Z,12.20
2019-04-21T07:24:41.690Z,12.33
2019-04-21T07:27:11.232Z,12.30
2019-04-21T07:29:45.346Z,12.45
2019-04-21T07:32:10.454Z,11.65
2019-04-21T07:34:38.502Z,10.82
2019-04-21T07:37:13.929Z,13.93
2019-04-21T07:39:42.158Z,10.28
2019-04-21T07:42:10.840Z,10.85
2019-04-21T07:44:44.224Z,11.55
2019-04-21T07:47:20.230Z,10.63
2019-04-21T08:12:47.787Z,7.42
2019-04-21T08:17:56.651Z,8.50
2019-04-21T08:20:24.784Z,9.00
2019-04-21T08:23:02.535Z,9.13
2019-04-21T08:25:42.060Z,8.53
2019-04-21T08:28:01.124Z,8.93
2019-04-21T08:33:20.937Z,9.23
2019-04-21T08:36:00.788Z,8.45
2019-04-21T08:38:08.190Z,9.13
2019-04-21T08:40:40.725Z,8.30
2019-04-21T08:43:12.622Z,8.50
2019-04-21T08:45:41.642Z,8.93
2019-04-21T08:48:10.587Z,7.72
2019-04-21T08:50:45.323Z,7.50
2019-04-21T08:58:43.087Z,8.55
2019-04-21T09:01:30.466Z,8.25
2019-04-21T09:04:11.694Z,8.08
2019-04-21T09:09:11.858Z,8.30
2019-04-21T09:11:34.597Z,7.60
2019-04-21T09:14:07.522Z,8.23
2019-04-21T09:16:36.665Z,8.20
2019-04-21T09:19:11.478Z,7.58
2019-04-21T09:21:46.926Z,8.33
2019-04-21T09:24:16.671Z,8.53
2019-04-21T09:26:43.485Z,8.20
2019-04-21T09:29:07.716Z,8.58
2019-04-21T09:31:37.494Z,8.43
2019-04-21T09:34:04.400Z,8.18
2019-04-21T09:36:40.290Z,8.53
2019-04-21T09:39:09.456Z,8.00
2019-04-21T09:41:37.611Z,7.70
2019-04-21T09:44:08.742Z,8.33
2019-04-21T09:46:45.326Z,8.30
2019-04-21T09:49:12.630Z,8.53
2019-04-21T09:51:39.665Z,8.30
2019-04-21T09:54:16.040Z,7.30
2019-04-21T09:56:49.998Z,7.33
2019-04-21T09:59:20.640Z,8.08
2019-04-21T10:01:54.988Z,7.97
2019-04-21T10:04:14.570Z,6.45
2019-04-21T10:06:45.189Z,8.55
2019-04-21T10:09:17.975Z,8.50
2019-04-21T10:11:45.974Z,8.20
2019-04-21T10:14:15.895Z,7.58
2019-04-21T10:16:53.953Z,7.10
2019-04-21T10:19:25.372Z,7.65
2019-04-21T10:21:56.225Z,7.35
2019-04-21T10:24:26.418Z,7.33
2019-04-21T10:26:55.878Z,7.58
2019-04-21T10:29:29.101Z,7.20
2019-04-21T10:31:57.333Z,7.08
2019-04-21T10:34:27.393Z,7.83
2019-04-21T10:36:56.920Z,7.15
2019-04-21T10:39:27.366Z,7.72
2019-04-21T10:41:57.315Z,7.53
2019-04-21T10:44:27.354Z,6.40
2019-04-21T10:46:58.249Z,7.97
2019-04-21T10:49:28.675Z,7.55
2019-04-21T10:51:59.067Z,7.55
2019-04-21T10:54:42.047Z,7.75
2019-04-21T10:57:02.074Z,7.33
2019-04-21T10:59:33.236Z,6.75
2019-04-21T11:02:05.138Z,7.22
2019-04-21T11:04:37.351Z,7.10
2019-04-21T11:07:13.507Z,6.83
2019-04-21T11:09:39.921Z,7.20
2019-04-21T11:12:10.165Z,7.03
2019-04-21T11:14:41.087Z,7.45
2019-04-21T11:17:10.546Z,7.17
2019-04-21T11:19:41.121Z,6.80
2019-04-21T11:22:10.720Z,6.60
2019-04-21T11:24:40.835Z,6.60
2019-04-21T11:27:10.957Z,6.60
2019-04-21T11:29:41.354Z,6.62
2019-04-21T11:32:10.921Z,6.60
2019-04-21T11:34:41.041Z,7.30
2019-04-21T11:37:12.425Z,6.37
2019-04-21T11:39:50.125Z,7.00
2019-04-21T11:42:15.601Z,7.03
2019-04-21T11:44:45.055Z,5.85
2019-04-21T11:47:22.721Z,6.65
2019-04-21T11:49:52.868Z,6.22
2019-04-21T11:52:22.849Z,6.67
2019-04-21T11:54:53.143Z,6.55
2019-04-21T11:57:27.838Z,6.55
2019-04-21T11:59:53.722Z,6.45
2019-04-21T12:02:23.616Z,5.87
2019-04-21T12:04:53.770Z,6.25
2019-04-21T12:07:23.333Z,5.95
2019-04-21T12:09:53.463Z,6.03
2019-04-21T12:12:23.253Z,6.42
2019-04-21T12:14:52.759Z,5.85
2019-04-21T12:17:22.160Z,8.23
2019-04-21T12:19:52.665Z,6.10
2019-04-21T12:22:28.138Z,5.87
2019-04-21T12:24:53.384Z,6.40
2019-04-21T12:27:22.792Z,6.08
2019-04-21T12:29:53.391Z,5.90
2019-04-21T12:32:40.272Z,6.50
2019-04-21T12:35:12.273Z,6.72
2019-04-21T12:37:42.782Z,7.10
2019-04-21T12:40:12.850Z,7.92
2019-04-21T12:42:43.685Z,7.70
2019-04-21T12:45:15.230Z,7.97
2019-04-21T12:47:47.389Z,11.60
2019-04-21T12:50:17.018Z,7.55
2019-04-21T12:52:47.435Z,7.47
2019-04-21T12:55:17.676Z,6.60
2019-04-21T12:57:47.691Z,6.92
2019-04-21T13:00:22.834Z,7.22
2019-04-21T13:02:52.479Z,6.67
2019-04-21T13:05:22.003Z,6.80
2019-04-21T13:07:51.468Z,6.30
2019-04-21T13:10:22.263Z,13.20
2019-04-21T13:12:52.179Z,8.05
2019-04-21T13:15:21.917Z,6.40
2019-04-21T13:17:52.259Z,6.17
2019-04-21T13:20:23.309Z,5.97
2019-04-21T13:22:54.044Z,6.33
2019-04-21T13:25:23.723Z,6.08
2019-04-21T13:27:54.389Z,4.85
2019-04-21T13:30:24.245Z,5.08
2019-04-21T13:32:53.610Z,6.70
2019-04-21T13:35:23.362Z,4.87
2019-04-21T13:37:54.252Z,6.97
2019-04-21T13:40:56.840Z,5.85
2019-04-21T13:43:12.937Z,6.05
2019-04-21T13:45:43.538Z,5.87
2019-04-21T13:48:14.676Z,4.45
2019-04-21T13:50:44.258Z,5.95
2019-04-21T13:53:14.668Z,6.12
2019-04-21T13:55:44.666Z,5.70
2019-04-21T13:58:14.582Z,5.90
2019-04-21T14:00:45.445Z,6.03
2019-04-21T14:03:16.380Z,6.42
2019-04-21T14:05:46.495Z,5.97
2019-04-21T14:08:16.119Z,6.30
2019-04-21T14:10:47.199Z,6.83
2019-04-21T14:13:16.715Z,5.53
2019-04-21T14:15:48.320Z,5.83
2019-04-21T14:18:18.503Z,5.90
2019-04-21T14:20:49.210Z,5.92
2019-04-21T14:23:28.577Z,6.03
2019-04-21T14:25:50.155Z,5.67
2019-04-21T14:28:19.968Z,6.55
2019-04-21T14:30:50.478Z,7.60
2019-04-21T14:33:20.532Z,6.03
2019-04-21T14:35:50.637Z,6.10
2019-04-21T14:38:20.630Z,5.97
2019-04-21T14:40:50.419Z,5.75
2019-04-21T14:43:20.457Z,5.80
2019-04-21T14:45:52.918Z,5.47
2019-04-21T14:48:41.102Z,5.78
2019-04-21T14:51:18.857Z,5.67
2019-04-21T14:53:49.931Z,5.17
2019-04-21T14:56:19.450Z,5.72
2019-04-21T14:58:49.000Z,4.97
2019-04-21T15:01:19.764Z,5.10
2019-04-21T15:03:49.996Z,5.78
2019-04-21T15:06:19.623Z,5.70
2019-04-21T15:08:49.272Z,5.75
2019-04-21T15:11:20.044Z,5.17
2019-04-21T15:13:49.844Z,5.62
2019-04-21T15:16:20.828Z,5.72
2019-04-21T15:18:50.626Z,5.65
2019-04-21T15:21:21.521Z,5.53
2019-04-21T15:23:51.121Z,6.53
2019-04-21T15:26:22.001Z,6.22
2019-04-21T15:28:52.828Z,6.30
2019-04-21T15:31:28.767Z,6.12
2019-04-21T15:33:54.866Z,5.62
2019-04-21T15:36:25.037Z,6.10
2019-04-21T15:38:56.058Z,6.17
2019-04-21T15:41:26.793Z,5.55
2019-04-21T15:43:57.225Z,6.10
2019-04-21T15:46:29.772Z,5.67
2019-04-21T15:49:00.494Z,6.03
2019-04-21T15:51:29.998Z,5.87
2019-04-21T15:54:02.597Z,5.80
2019-04-21T15:56:40.787Z,5.42
2019-04-21T15:59:18.805Z,5.70
2019-04-21T16:01:52.746Z,5.75
2019-04-21T16:04:22.990Z,5.35
2019-04-21T16:06:53.469Z,6.08
2019-04-21T16:09:25.927Z,6.25
2019-04-21T16:11:55.689Z,6.22
2019-04-21T16:14:26.888Z,5.83
2019-04-21T16:16:57.122Z,6.10
2019-04-21T16:19:27.240Z,5.80
2019-04-21T16:21:56.883Z,6.55
2019-04-21T16:24:27.460Z,6.08
2019-04-21T16:27:01.080Z,5.70
2019-04-21T16:29:29.215Z,5.90
2019-04-21T16:31:59.636Z,6.15
2019-04-21T16:34:37.850Z,6.00
2019-04-21T16:37:01.421Z,6.40
2019-04-21T16:39:31.548Z,6.03
2019-04-21T16:42:02.472Z,5.83
2019-04-21T16:44:32.049Z,5.45
2019-04-21T16:47:01.460Z,5.17
2019-04-21T16:49:31.790Z,6.12
2019-04-21T16:52:10.006Z,5.92
2019-04-21T16:54:42.035Z,5.37
2019-04-21T16:57:13.052Z,5.37
2019-04-21T16:59:44.476Z,5.60
2019-04-21T17:02:14.502Z,5.90
2019-04-21T17:04:44.386Z,10.45
2019-04-21T17:07:15.005Z,7.20
2019-04-21T17:09:44.551Z,8.33
2019-04-21T17:12:15.952Z,5.65
2019-04-21T17:15:01.526Z,6.20
2019-04-21T17:17:37.219Z,5.80
2019-04-21T17:19:51.215Z,5.92
2019-04-21T17:22:19.594Z,5.67
2019-04-21T17:24:50.442Z,5.35
2019-04-21T17:27:20.838Z,7.40
2019-04-21T17:29:50.679Z,6.62
2019-04-21T17:32:20.621Z,6.60
2019-04-21T17:34:50.192Z,6.55
2019-04-21T17:37:22.029Z,7.03
2019-04-21T17:39:50.878Z,6.42
2019-04-21T17:42:29.781Z,6.10
2019-04-21T17:44:52.995Z,5.35
2019-04-21T17:47:34.699Z,5.60
2019-04-21T17:50:17.663Z,5.92
2019-04-21T17:52:55.729Z,5.55
2019-04-21T17:55:28.342Z,5.40
2019-04-21T17:58:16.331Z,5.70
2019-04-21T18:03:32.856Z,5.40
2019-04-21T18:05:53.899Z,5.42
2019-04-21T18:08:36.751Z,6.10
2019-04-21T18:10:50.700Z,5.55
2019-04-21T18:13:15.959Z,5.95
2019-04-21T18:15:58.631Z,5.75
2019-04-21T18:18:14.495Z,5.17
2019-04-21T18:20:46.130Z,4.87
2019-04-21T18:23:39.697Z,4.95
2019-04-21T18:26:06.066Z,5.97
2019-04-21T18:28:32.283Z,5.70
2019-04-21T18:31:04.679Z,5.33
2019-04-21T18:33:40.282Z,4.70
2019-04-21T18:36:24.549Z,4.97
2019-04-21T18:39:18.031Z,5.70
2019-04-21T18:41:36.441Z,5.25
2019-04-21T18:47:16.667Z,5.42
2019-04-21T18:49:33.434Z,5.92
2019-04-21T18:52:32.244Z,5.37
2019-04-21T18:55:06.559Z,6.30
2019-04-21T18:57:30.945Z,5.62
2019-04-21T18:59:55.188Z,6.58
2019-04-21T19:02:26.259Z,6.92
2019-04-21T19:05:04.387Z,6.65
2019-04-21T19:07:45.562Z,7.10
2019-04-21T19:10:22.745Z,7.28
2019-04-21T19:13:20.286Z,7.43
2019-04-21T19:15:18.286Z,8.00
2019-04-21T19:18:17.007Z,8.38
2019-04-21T19:20:52.323Z,7.10
2019-04-21T19:22:47.703Z,7.13
2019-04-21T19:25:27.006Z,6.83
2019-04-21T19:27:54.740Z,6.83
2019-04-21T19:30:36.804Z,6.80
2019-04-21T19:32:58.406Z,6.03
2019-04-21T19:35:14.815Z,6.87
2019-04-21T19:37:54.180Z,6.77
2019-04-21T19:40:38.276Z,7.10
2019-04-21T19:42:57.838Z,7.00
2019-04-21T19:45:34.213Z,7.13
2019-04-21T19:48:09.051Z,7.40
2019-04-21T19:50:50.274Z,7.80
2019-04-21T19:53:08.892Z,7.87
2019-04-21T19:55:32.053Z,7.93
2019-04-21T19:58:03.059Z,8.50
2019-04-21T20:00:32.689Z,8.47
2019-04-21T20:03:03.081Z,8.43
2019-04-21T20:05:41.770Z,7.87
2019-04-21T20:08:22.153Z,7.97
2019-04-21T20:10:58.103Z,7.60
2019-04-21T20:13:38.478Z,7.70
2019-04-21T20:15:57.190Z,7.17
2019-04-21T20:18:21.242Z,7.17
2019-04-21T20:20:41.114Z,7.03
2019-04-21T20:23:16.925Z,7.27
2019-04-21T20:25:47.463Z,7.00
2019-04-21T20:28:22.210Z,7.40
2019-04-21T20:31:03.878Z,6.80
2019-04-21T20:33:48.723Z,6.83
2019-04-21T20:36:11.985Z,7.40
2019-04-21T20:38:33.948Z,6.90
2019-04-21T20:40:59.246Z,7.50
2019-04-21T20:43:51.330Z,7.37
2019-04-21T20:46:07.475Z,7.07
2019-04-21T20:48:41.438Z,6.77
2019-04-21T20:51:14.928Z,6.80
2019-04-21T20:53:41.504Z,6.57
2019-04-21T20:56:08.563Z,6.53
2019-04-21T20:58:49.359Z,7.00
2019-04-21T21:03:57.912Z,6.60
2019-04-21T21:06:19.506Z,7.17
2019-04-21T21:08:54.208Z,7.70
2019-04-21T21:11:15.148Z,7.60
2019-04-21T21:13:52.290Z,7.67
2019-04-21T21:16:35.407Z,7.50
2019-04-21T21:19:03.730Z,7.37
2019-04-21T21:21:24.339Z,7.83
2019-04-21T21:23:55.885Z,8.03
2019-04-21T21:26:45.574Z,7.70
2019-04-21T21:28:52.073Z,7.43
2019-04-21T21:31:30.761Z,7.63
2019-04-21T21:34:11.927Z,7.20
2019-04-21T21:36:33.931Z,7.97
2019-04-21T21:39:06.022Z,7.33
2019-04-21T21:41:25.329Z,7.73
2019-04-21T21:43:58.117Z,7.67
2019-04-21T21:46:36.791Z,7.47
2019-04-21T21:49:03.120Z,7.43
2019-04-21T21:51:38.438Z,8.63
2019-04-21T21:53:54.665Z,8.97
2019-04-21T21:56:24.695Z,9.57
2019-04-21T21:58:55.200Z,9.80
2019-04-21T22:01:34.304Z,9.50
2019-04-21T22:04:05.023Z,8.70
2019-04-21T22:06:39.943Z,10.27
2019-04-21T22:09:00.664Z,9.93
2019-04-21T22:11:31.536Z,9.57
2019-04-21T22:14:06.095Z,9.17
2019-04-21T22:16:46.616Z,8.40
2019-04-21T22:19:20.251Z,8.53
2019-04-21T22:21:53.594Z,8.00
2019-04-21T22:24:20.375Z,8.90
2019-04-21T22:26:37.263Z,8.33
2019-04-21T22:29:07.737Z,8.37
2019-04-21T22:31:40.697Z,8.33
2019-04-21T22:34:12.255Z,8.03
2019-04-21T22:36:48.833Z,8.70
2019-04-21T22:39:28.440Z,9.10
2019-04-21T22:41:45.725Z,8.90
2019-04-21T22:44:18.587Z,8.50
2019-04-21T22:46:59.949Z,9.33
2019-04-21T22:49:21.494Z,8.47
2019-04-21T22:51:52.097Z,8.30
2019-04-21T22:54:29.659Z,8.30
2019-04-21T22:57:03.998Z,8.23
2019-04-21T22:59:24.896Z,8.77
2019-04-21T23:01:55.840Z,8.10
2019-04-21T23:04:34.213Z,7.70
2019-04-21T23:07:03.563Z,8.57
2019-04-21T23:09:29.172Z,7.73
2019-04-21T23:12:00.038Z,7.70
2019-04-21T23:14:33.872Z,8.27
2019-04-21T23:17:24.125Z,8.27
2019-04-21T23:19:46.376Z,8.37
2019-04-21T23:22:21.797Z,8.17
2019-04-21T23:24:59.119Z,8.60
2019-04-21T23:27:14.128Z,9.23
2019-04-21T23:29:58.955Z,9.23
2019-04-21T23:32:22.328Z,8.60
2019-04-21T23:34:40.713Z,7.77
2019-04-21T23:37:15.074Z,8.67
2019-04-21T23:39:41.667Z,7.43
2019-04-21T23:42:11.319Z,8.20
2019-04-21T23:44:45.891Z,8.40
2019-04-21T23:47:26.255Z,8.33
2019-04-21T23:49:55.762Z,7.97
2019-04-21T23:52:16.120Z,8.30
2019-04-21T23:54:45.441Z,8.73
2019-04-21T23:57:20.838Z,8.83
2019-04-21T23:59:51.293Z,9.33
